METAR AND TAF INFORMATION
METAR FOR EETU
ADDS - METARS form results

(0239 UTC 01 June 2020)
Data provider http://aviationweather.gov/metar/data/
 
METAR text: EETU 010150Z AUTO VRB02KT 9999 NCD 04/03 Q1023
Conditions at: EETU (TARTU , EE) observed 0150 UTC 01 June 2020
Temperature: 4.0°C (39°F)
Dewpoint: 3.0°C (37°F) [RH = 93%]
Pressure (altimeter): 30.21 inches Hg (1023.0 mb)
Winds: variable direction winds at 2 MPH (2 knots; 1.0 m/s)
Visibility: 6 or more miles (10+ km)
Ceiling: at least 12,000 feet AGL
Clouds: sky clear below 12,000 feet AGL
Weather: no significant weather observed at this time

 AIRPORT MAP

 RUNWAY INFORMATION
Runway 08 Runway length 5902 ft Runway width 101 ft
Runway elevation 210 ft Runway displaced threshold 0 ft Runway heading 88
Runway 26 Runway length 5902 ft Runway width 101 ft
Runway elevation 192 ft Runway displaced threshold 0 ft Runway heading 268

 AIRPORT FREQUENCIES
Type TWR Name TWR Frequency 133.9 MHZ

 AIRPORT NEAR NAVIGATION AIDS
Type NDB Name Tartu Frequency 397 KHZ



Powered by Virtual Airlines Manager [v2.6.2]